sensor_id;sensor_type;location;lat;lon;timestamp;pressure;altitude;pressure_sealevel;temperature;humidity
70127;BME280;57491;42.694;23.314;2023-02-15T00:01:05;96329.63;;;4.72;59.63
70127;BME280;57491;42.694;23.314;2023-02-15T00:03:32;96340.09;;;4.58;60.10
70127;BME280;57491;42.694;23.314;2023-02-15T00:05:59;96334.78;;;4.72;62.43
70127;BME280;57491;42.694;23.314;2023-02-15T00:08:26;96334.31;;;4.78;59.98
70127;BME280;57491;42.694;23.314;2023-02-15T00:10:53;96336.19;;;4.76;59.69
70127;BME280;57491;42.694;23.314;2023-02-15T00:13:29;96341.53;;;4.62;60.86
70127;BME280;57491;42.694;23.314;2023-02-15T00:16:01;96346.44;;;4.65;59.99
70127;BME280;57491;42.694;23.314;2023-02-15T00:18:28;96350.44;;;4.69;59.98
70127;BME280;57491;42.694;23.314;2023-02-15T00:20:56;96348.81;;;4.68;60.03
70127;BME280;57491;42.694;23.314;2023-02-15T00:23:23;96341.09;;;4.68;61.87
70127;BME280;57491;42.694;23.314;2023-02-15T00:25:50;96344.47;;;4.69;62.21
70127;BME280;57491;42.694;23.314;2023-02-15T00:28:17;96344.84;;;4.75;62.29
70127;BME280;57491;42.694;23.314;2023-02-15T00:30:44;96348.25;;;4.76;60.04
70127;BME280;57491;42.694;23.314;2023-02-15T00:33:13;96352.72;;;4.85;60.06
70127;BME280;57491;42.694;23.314;2023-02-15T00:35:40;96349.09;;;4.87;59.65
70127;BME280;57491;42.694;23.314;2023-02-15T00:38:07;96352.00;;;4.83;58.38
70127;BME280;57491;42.694;23.314;2023-02-15T00:40:34;96352.31;;;4.67;59.58
70127;BME280;57491;42.694;23.314;2023-02-15T00:43:01;96350.94;;;4.50;59.73
70127;BME280;57491;42.694;23.314;2023-02-15T00:45:28;96353.66;;;4.49;60.12
70127;BME280;57491;42.694;23.314;2023-02-15T00:47:55;96351.19;;;4.47;60.13
70127;BME280;57491;42.694;23.314;2023-02-15T00:50:24;96352.22;;;4.45;61.05
70127;BME280;57491;42.694;23.314;2023-02-15T00:52:51;96346.41;;;4.54;61.46
70127;BME280;57491;42.694;23.314;2023-02-15T00:55:18;96346.91;;;4.59;61.04
70127;BME280;57491;42.694;23.314;2023-02-15T00:57:45;96347.38;;;4.64;60.13
70127;BME280;57491;42.694;23.314;2023-02-15T01:00:13;96344.03;;;4.51;59.68
70127;BME280;57491;42.694;23.314;2023-02-15T01:02:40;96351.09;;;4.60;59.81
70127;BME280;57491;42.694;23.314;2023-02-15T01:05:07;96347.13;;;4.56;59.37
70127;BME280;57491;42.694;23.314;2023-02-15T01:07:36;96343.56;;;4.46;59.54
70127;BME280;57491;42.694;23.314;2023-02-15T01:10:04;96333.13;;;4.36;60.18
70127;BME280;57491;42.694;23.314;2023-02-15T01:12:31;96338.28;;;4.36;60.26
70127;BME280;57491;42.694;23.314;2023-02-15T01:14:58;96335.91;;;4.33;60.98
70127;BME280;57491;42.694;23.314;2023-02-15T01:17:25;96328.56;;;4.40;60.60
70127;BME280;57491;42.694;23.314;2023-02-15T01:19:52;96336.78;;;4.45;62.30
70127;BME280;57491;42.694;23.314;2023-02-15T01:22:20;96342.78;;;4.57;63.66
70127;BME280;57491;42.694;23.314;2023-02-15T01:24:50;96338.72;;;4.65;60.68
70127;BME280;57491;42.694;23.314;2023-02-15T01:27:17;96336.88;;;4.67;59.90
70127;BME280;57491;42.694;23.314;2023-02-15T01:29:44;96336.38;;;4.62;60.46
70127;BME280;57491;42.694;23.314;2023-02-15T01:32:11;96322.53;;;4.52;60.16
70127;BME280;57491;42.694;23.314;2023-02-15T01:34:38;96329.91;;;4.57;60.97
70127;BME280;57491;42.694;23.314;2023-02-15T01:37:05;96326.63;;;4.55;59.89
70127;BME280;57491;42.694;23.314;2023-02-15T01:39:32;96327.22;;;4.58;60.35
70127;BME280;57491;42.694;23.314;2023-02-15T01:42:00;96324.41;;;4.50;60.05
70127;BME280;57491;42.694;23.314;2023-02-15T01:44:49;96314.53;;;4.44;60.00
70127;BME280;57491;42.694;23.314;2023-02-15T01:47:22;96313.75;;;4.55;63.52
70127;BME280;57491;42.694;23.314;2023-02-15T01:49:57;96311.19;;;4.55;61.74
70127;BME280;57491;42.694;23.314;2023-02-15T01:52:25;96314.91;;;4.50;63.37
70127;BME280;57491;42.694;23.314;2023-02-15T01:54:53;96311.19;;;4.55;61.81
70127;BME280;57491;42.694;23.314;2023-02-15T01:57:23;96302.84;;;4.51;60.08
70127;BME280;57491;42.694;23.314;2023-02-15T01:59:56;96313.44;;;4.59;62.12
70127;BME280;57491;42.694;23.314;2023-02-15T02:02:24;96315.50;;;4.54;60.26
70127;BME280;57491;42.694;23.314;2023-02-15T02:04:53;96311.72;;;4.47;60.36
70127;BME280;57491;42.694;23.314;2023-02-15T02:07:23;96317.81;;;4.46;63.99
70127;BME280;57491;42.694;23.314;2023-02-15T02:09:51;96309.31;;;4.57;63.30
70127;BME280;57491;42.694;23.314;2023-02-15T02:12:21;96311.19;;;4.55;61.25
70127;BME280;57491;42.694;23.314;2023-02-15T02:14:50;96312.47;;;4.60;61.12
70127;BME280;57491;42.694;23.314;2023-02-15T02:17:23;96317.03;;;4.57;61.18
70127;BME280;57491;42.694;23.314;2023-02-15T02:20:16;96317.97;;;4.56;64.21
70127;BME280;57491;42.694;23.314;2023-02-15T02:23:14;96324.09;;;4.66;62.96
70127;BME280;57491;42.694;23.314;2023-02-15T02:26:18;96325.97;;;4.64;60.71
70127;BME280;57491;42.694;23.314;2023-02-15T02:32:11;96326.75;;;4.53;60.81
70127;BME280;57491;42.694;23.314;2023-02-15T02:34:50;96333.06;;;4.49;61.30
70127;BME280;57491;42.694;23.314;2023-02-15T02:37:24;96320.88;;;4.51;60.56
70127;BME280;57491;42.694;23.314;2023-02-15T02:39:59;96325.09;;;4.52;63.15
70127;BME280;57491;42.694;23.314;2023-02-15T02:42:35;96327.44;;;4.55;61.40
70127;BME280;57491;42.694;23.314;2023-02-15T02:45:08;96331.91;;;4.64;61.41
70127;BME280;57491;42.694;23.314;2023-02-15T02:47:39;96330.41;;;4.62;60.78
70127;BME280;57491;42.694;23.314;2023-02-15T02:50:13;96324.19;;;4.64;60.55
70127;BME280;57491;42.694;23.314;2023-02-15T02:52:43;96325.25;;;4.62;60.22
70127;BME280;57491;42.694;23.314;2023-02-15T02:55:13;96334.03;;;4.59;60.70
70127;BME280;57491;42.694;23.314;2023-02-15T02:57:49;96332.53;;;4.68;61.96
70127;BME280;57491;42.694;23.314;2023-02-15T03:00:19;96336.53;;;4.72;61.92
70127;BME280;57491;42.694;23.314;2023-02-15T03:02:50;96338.03;;;4.74;60.36
70127;BME280;57491;42.694;23.314;2023-02-15T03:05:23;96323.84;;;4.69;60.02
70127;BME280;57491;42.694;23.314;2023-02-15T03:07:53;96341.94;;;4.80;60.32
70127;BME280;57491;42.694;23.314;2023-02-15T03:10:23;96335.84;;;4.81;60.89
70127;BME280;57491;42.694;23.314;2023-02-15T03:12:52;96347.31;;;4.77;60.78
70127;BME280;57491;42.694;23.314;2023-02-15T03:15:20;96347.03;;;4.69;60.39
70127;BME280;57491;42.694;23.314;2023-02-15T03:17:52;96340.69;;;4.62;60.73
70127;BME280;57491;42.694;23.314;2023-02-15T03:20:24;96346.94;;;4.70;60.85
70127;BME280;57491;42.694;23.314;2023-02-15T03:22:54;96354.75;;;4.69;60.86
70127;BME280;57491;42.694;23.314;2023-02-15T03:25:25;96345.19;;;4.71;60.76
70127;BME280;57491;42.694;23.314;2023-02-15T03:27:55;96341.22;;;4.78;61.81
70127;BME280;57491;42.694;23.314;2023-02-15T03:30:28;96350.50;;;4.80;60.75
70127;BME280;57491;42.694;23.314;2023-02-15T03:32:58;96356.22;;;4.84;61.91
70127;BME280;57491;42.694;23.314;2023-02-15T03:35:33;96350.84;;;4.87;60.62
70127;BME280;57491;42.694;23.314;2023-02-15T03:38:04;96345.81;;;4.85;62.29
70127;BME280;57491;42.694;23.314;2023-02-15T03:40:37;96335.72;;;4.82;60.46
70127;BME280;57491;42.694;23.314;2023-02-15T03:43:28;96333.28;;;4.81;60.62
70127;BME280;57491;42.694;23.314;2023-02-15T03:46:03;96338.44;;;4.81;61.47
70127;BME280;57491;42.694;23.314;2023-02-15T03:48:35;96350.25;;;4.83;61.27
70127;BME280;57491;42.694;23.314;2023-02-15T03:51:08;96339.84;;;4.85;62.49
70127;BME280;57491;42.694;23.314;2023-02-15T03:53:55;96343.00;;;4.88;60.84
70127;BME280;57491;42.694;23.314;2023-02-15T03:56:24;96331.88;;;4.88;60.70
70127;BME280;57491;42.694;23.314;2023-02-15T03:58:51;96345.09;;;4.83;60.55
70127;BME280;57491;42.694;23.314;2023-02-15T04:01:39;96352.34;;;4.78;61.25
70127;BME280;57491;42.694;23.314;2023-02-15T04:04:32;96333.28;;;4.81;61.76
70127;BME280;57491;42.694;23.314;2023-02-15T04:07:01;96347.00;;;4.92;62.36
70127;BME280;57491;42.694;23.314;2023-02-15T04:09:29;96346.44;;;5.00;60.61
70127;BME280;57491;42.694;23.314;2023-02-15T04:12:13;96358.53;;;5.00;62.35
70127;BME280;57491;42.694;23.314;2023-02-15T04:14:40;96358.72;;;4.97;61.82
70127;BME280;57491;42.694;23.314;2023-02-15T04:17:25;96363.44;;;5.03;61.14
70127;BME280;57491;42.694;23.314;2023-02-15T04:19:52;96357.84;;;5.09;60.31
70127;BME280;57491;42.694;23.314;2023-02-15T04:22:38;96370.72;;;5.09;60.26
70127;BME280;57491;42.694;23.314;2023-02-15T04:25:22;96372.78;;;4.92;61.10
70127;BME280;57491;42.694;23.314;2023-02-15T04:27:51;96370.69;;;4.98;61.13
70127;BME280;57491;42.694;23.314;2023-02-15T04:30:20;96380.31;;;5.07;63.01
70127;BME280;57491;42.694;23.314;2023-02-15T04:32:48;96390.63;;;5.07;60.54
70127;BME280;57491;42.694;23.314;2023-02-15T04:35:15;96377.69;;;4.95;60.57
70127;BME280;57491;42.694;23.314;2023-02-15T04:37:44;96394.81;;;4.97;61.08
70127;BME280;57491;42.694;23.314;2023-02-15T04:40:13;96393.16;;;4.95;61.56
70127;BME280;57491;42.694;23.314;2023-02-15T04:42:41;96394.09;;;4.94;60.73
70127;BME280;57491;42.694;23.314;2023-02-15T04:45:08;96386.81;;;4.88;61.48
70127;BME280;57491;42.694;23.314;2023-02-15T04:47:35;96379.00;;;4.90;61.89
70127;BME280;57491;42.694;23.314;2023-02-15T04:50:03;96376.91;;;4.95;61.58
70127;BME280;57491;42.694;23.314;2023-02-15T04:52:30;96389.22;;;5.03;61.84
70127;BME280;57491;42.694;23.314;2023-02-15T04:54:59;96398.94;;;5.10;60.92
70127;BME280;57491;42.694;23.314;2023-02-15T04:57:26;96395.63;;;4.97;61.87
70127;BME280;57491;42.694;23.314;2023-02-15T04:59:53;96383.16;;;4.80;61.11
70127;BME280;57491;42.694;23.314;2023-02-15T05:02:20;96400.97;;;4.83;61.92
70127;BME280;57491;42.694;23.314;2023-02-15T05:04:47;96394.41;;;4.79;62.18
70127;BME280;57491;42.694;23.314;2023-02-15T05:07:14;96408.03;;;4.92;62.02
70127;BME280;57491;42.694;23.314;2023-02-15T05:09:41;96405.69;;;4.89;61.82
70127;BME280;57491;42.694;23.314;2023-02-15T05:12:10;96408.34;;;4.87;61.35
70127;BME280;57491;42.694;23.314;2023-02-15T05:14:37;96409.09;;;4.89;61.57
70127;BME280;57491;42.694;23.314;2023-02-15T05:17:04;96417.91;;;4.98;62.58
70127;BME280;57491;42.694;23.314;2023-02-15T05:19:31;96414.06;;;5.04;61.44
70127;BME280;57491;42.694;23.314;2023-02-15T05:21:58;96423.47;;;5.16;62.74
70127;BME280;57491;42.694;23.314;2023-02-15T05:24:25;96417.81;;;5.11;60.73
70127;BME280;57491;42.694;23.314;2023-02-15T05:27:12;96419.69;;;5.09;61.63
70127;BME280;57491;42.694;23.314;2023-02-15T05:29:56;96427.88;;;5.14;61.85
70127;BME280;57491;42.694;23.314;2023-02-15T05:32:24;96433.53;;;5.19;61.82
70127;BME280;57491;42.694;23.314;2023-02-15T05:34:51;96422.44;;;5.29;60.62
70127;BME280;57491;42.694;23.314;2023-02-15T05:37:18;96429.25;;;5.30;60.67
70127;BME280;57491;42.694;23.314;2023-02-15T05:39:45;96428.88;;;5.24;60.79
70127;BME280;57491;42.694;23.314;2023-02-15T05:42:13;96439.19;;;5.24;60.46
70127;BME280;57491;42.694;23.314;2023-02-15T05:44:40;96439.19;;;5.24;60.06
70127;BME280;57491;42.694;23.314;2023-02-15T05:47:07;96433.44;;;5.20;60.34
70127;BME280;57491;42.694;23.314;2023-02-15T05:49:34;96436.69;;;5.22;61.55
70127;BME280;57491;42.694;23.314;2023-02-15T05:52:03;96433.19;;;5.23;60.36
70127;BME280;57491;42.694;23.314;2023-02-15T05:54:30;96437.06;;;5.18;60.60
70127;BME280;57491;42.694;23.314;2023-02-15T05:56:57;96435.41;;;5.17;61.58
70127;BME280;57491;42.694;23.314;2023-02-15T05:59:26;96437.81;;;5.31;62.04
70127;BME280;57491;42.694;23.314;2023-02-15T06:01:53;96433.34;;;5.33;59.66
70127;BME280;57491;42.694;23.314;2023-02-15T06:04:20;96441.16;;;5.20;59.83
70127;BME280;57491;42.694;23.314;2023-02-15T06:06:47;96443.34;;;5.14;60.20
70127;BME280;57491;42.694;23.314;2023-02-15T06:09:14;96441.28;;;5.19;61.47
70127;BME280;57491;42.694;23.314;2023-02-15T06:11:43;96443.16;;;5.17;60.64
70127;BME280;57491;42.694;23.314;2023-02-15T06:14:11;96439.06;;;5.25;61.44
70127;BME280;57491;42.694;23.314;2023-02-15T06:16:39;96426.78;;;5.29;60.55
70127;BME280;57491;42.694;23.314;2023-02-15T06:19:06;96435.47;;;5.39;60.41
70127;BME280;57491;42.694;23.314;2023-02-15T06:21:33;96440.16;;;5.45;60.42
70127;BME280;57491;42.694;23.314;2023-02-15T06:24:00;96448.66;;;5.58;59.39
70127;BME280;57491;42.694;23.314;2023-02-15T06:26:27;96450.16;;;5.61;59.50
70127;BME280;57491;42.694;23.314;2023-02-15T06:28:55;96445.72;;;5.74;61.15
70127;BME280;57491;42.694;23.314;2023-02-15T06:31:22;96448.41;;;5.72;58.42
70127;BME280;57491;42.694;23.314;2023-02-15T06:33:50;96447.47;;;5.73;59.42
70127;BME280;57491;42.694;23.314;2023-02-15T06:36:18;96443.28;;;5.83;58.64
70127;BME280;57491;42.694;23.314;2023-02-15T06:38:45;96442.44;;;5.83;58.46
70127;BME280;57491;42.694;23.314;2023-02-15T06:41:12;96438.34;;;5.80;58.38
70127;BME280;57491;42.694;23.314;2023-02-15T06:43:39;96445.28;;;5.80;58.50
70127;BME280;57491;42.694;23.314;2023-02-15T06:46:06;96455.03;;;5.88;58.92
70127;BME280;57491;42.694;23.314;2023-02-15T06:48:33;96448.81;;;5.90;58.48
70127;BME280;57491;42.694;23.314;2023-02-15T06:51:01;96447.19;;;6.00;57.79
70127;BME280;57491;42.694;23.314;2023-02-15T06:53:28;96448.00;;;6.01;58.49
70127;BME280;57491;42.694;23.314;2023-02-15T06:56:00;96447.78;;;5.93;57.51
70127;BME280;57491;42.694;23.314;2023-02-15T06:58:32;96444.94;;;5.84;58.19
70127;BME280;57491;42.694;23.314;2023-02-15T07:00:59;96448.81;;;5.90;59.55
70127;BME280;57491;42.694;23.314;2023-02-15T07:03:26;96445.53;;;6.10;58.22
70127;BME280;57491;42.694;23.314;2023-02-15T07:05:54;96447.19;;;6.11;57.34
70127;BME280;57491;42.694;23.314;2023-02-15T07:08:22;96449.75;;;6.22;58.49
70127;BME280;57491;42.694;23.314;2023-02-15T07:10:50;96447.16;;;6.22;55.95
70127;BME280;57491;42.694;23.314;2023-02-15T07:13:18;96445.06;;;6.16;55.96
70127;BME280;57491;42.694;23.314;2023-02-15T07:15:44;96443.66;;;6.12;56.00
70127;BME280;57491;42.694;23.314;2023-02-15T07:18:11;96449.06;;;6.20;56.47
70127;BME280;57491;42.694;23.314;2023-02-15T07:20:38;96446.59;;;6.08;56.12
70127;BME280;57491;42.694;23.314;2023-02-15T07:23:08;96457.03;;;6.17;57.04
70127;BME280;57491;42.694;23.314;2023-02-15T07:25:36;96455.75;;;6.23;56.04
70127;BME280;57491;42.694;23.314;2023-02-15T07:28:04;96452.66;;;6.40;57.60
70127;BME280;57491;42.694;23.314;2023-02-15T07:30:31;96457.81;;;6.40;55.24
70127;BME280;57491;42.694;23.314;2023-02-15T07:32:58;96456.44;;;6.36;55.80
70127;BME280;57491;42.694;23.314;2023-02-15T07:35:47;96449.41;;;6.38;54.92
70127;BME280;57491;42.694;23.314;2023-02-15T07:38:14;96447.50;;;6.51;54.95
70127;BME280;57491;42.694;23.314;2023-02-15T07:40:43;96439.69;;;6.62;54.98
70127;BME280;57491;42.694;23.314;2023-02-15T07:43:11;96439.69;;;6.73;55.80
70127;BME280;57491;42.694;23.314;2023-02-15T07:45:38;96437.31;;;6.82;56.21
70127;BME280;57491;42.694;23.314;2023-02-15T07:48:06;96436.66;;;7.00;57.48
70127;BME280;57491;42.694;23.314;2023-02-15T07:50:33;96446.97;;;7.32;54.00
70127;BME280;57491;42.694;23.314;2023-02-15T07:53:01;96435.34;;;7.27;52.50
70127;BME280;57491;42.694;23.314;2023-02-15T07:55:29;96428.16;;;7.09;52.53
70127;BME280;57491;42.694;23.314;2023-02-15T07:57:58;96432.78;;;6.95;52.99
70127;BME280;57491;42.694;23.314;2023-02-15T08:00:25;96429.19;;;6.86;55.46
70127;BME280;57491;42.694;23.314;2023-02-15T08:02:53;96432.41;;;6.99;53.67
70127;BME280;57491;42.694;23.314;2023-02-15T08:05:35;96434.31;;;6.97;53.40
70127;BME280;57491;42.694;23.314;2023-02-15T08:08:02;96430.84;;;7.08;54.63
70127;BME280;57491;42.694;23.314;2023-02-15T08:10:29;96438.06;;;7.25;52.74
70127;BME280;57491;42.694;23.314;2023-02-15T08:13:11;96446.53;;;7.27;54.47
70127;BME280;57491;42.694;23.314;2023-02-15T08:15:38;96442.59;;;7.12;54.85
70127;BME280;57491;42.694;23.314;2023-02-15T08:18:05;96446.34;;;6.87;53.30
70127;BME280;57491;42.694;23.314;2023-02-15T08:20:33;96446.81;;;6.81;54.90
70127;BME280;57491;42.694;23.314;2023-02-15T08:23:00;96441.75;;;6.91;54.77
70127;BME280;57491;42.694;23.314;2023-02-15T08:25:27;96445.84;;;6.93;52.97
70127;BME280;57491;42.694;23.314;2023-02-15T08:27:54;96443.88;;;6.86;53.24
70127;BME280;57491;42.694;23.314;2023-02-15T08:30:22;96445.25;;;6.90;52.91
70127;BME280;57491;42.694;23.314;2023-02-15T08:32:49;96447.84;;;6.90;53.48
70127;BME280;57491;42.694;23.314;2023-02-15T08:35:16;96439.69;;;6.73;53.66
70127;BME280;57491;42.694;23.314;2023-02-15T08:37:44;96445.59;;;6.64;53.52
70127;BME280;57491;42.694;23.314;2023-02-15T08:40:11;96441.84;;;6.57;53.63
70127;BME280;57491;42.694;23.314;2023-02-15T08:42:39;96440.88;;;6.58;53.59
70127;BME280;57491;42.694;23.314;2023-02-15T08:45:07;96452.56;;;6.53;53.60
70127;BME280;57491;42.694;23.314;2023-02-15T08:47:36;96447.22;;;6.65;55.86
70127;BME280;57491;42.694;23.314;2023-02-15T08:50:04;96451.16;;;6.81;53.26
70127;BME280;57491;42.694;23.314;2023-02-15T08:52:31;96459.63;;;6.83;52.72
70127;BME280;57491;42.694;23.314;2023-02-15T08:54:58;96451.06;;;6.71;52.65
70127;BME280;57491;42.694;23.314;2023-02-15T08:57:25;96449.53;;;6.80;52.87
70127;BME280;57491;42.694;23.314;2023-02-15T08:59:52;96436.03;;;7.08;52.40
70127;BME280;57491;42.694;23.314;2023-02-15T09:02:20;96452.78;;;7.45;53.25
70127;BME280;57491;42.694;23.314;2023-02-15T09:04:49;96443.13;;;7.47;50.24
70127;BME280;57491;42.694;23.314;2023-02-15T09:07:17;96444.75;;;7.48;50.23
70127;BME280;57491;42.694;23.314;2023-02-15T09:09:45;96447.16;;;7.40;51.18
70127;BME280;57491;42.694;23.314;2023-02-15T09:12:12;96453.72;;;7.65;50.11
70127;BME280;57491;42.694;23.314;2023-02-15T09:14:39;96455.63;;;7.93;49.18
70127;BME280;57491;42.694;23.314;2023-02-15T09:17:06;96442.63;;;8.04;48.81
70127;BME280;57491;42.694;23.314;2023-02-15T09:19:34;96448.53;;;8.16;48.91
70127;BME280;57491;42.694;23.314;2023-02-15T09:22:02;96449.38;;;8.26;47.79
70127;BME280;57491;42.694;23.314;2023-02-15T09:24:31;96441.28;;;8.10;49.04
70127;BME280;57491;42.694;23.314;2023-02-15T09:26:59;96450.69;;;7.81;49.03
70127;BME280;57491;42.694;23.314;2023-02-15T09:29:26;96450.78;;;8.00;49.52
70127;BME280;57491;42.694;23.314;2023-02-15T09:31:53;96453.47;;;8.29;48.35
70127;BME280;57491;42.694;23.314;2023-02-15T09:34:21;96456.47;;;8.55;47.33
70127;BME280;57491;42.694;23.314;2023-02-15T09:36:49;96442.28;;;8.59;47.48
70127;BME280;57491;42.694;23.314;2023-02-15T09:39:19;96450.31;;;8.65;47.70
70127;BME280;57491;42.694;23.314;2023-02-15T09:42:11;96450.72;;;8.61;47.81
70127;BME280;57491;42.694;23.314;2023-02-15T09:44:57;96450.91;;;8.69;50.12
70127;BME280;57491;42.694;23.314;2023-02-15T09:47:40;96450.63;;;8.72;46.76
70127;BME280;57491;42.694;23.314;2023-02-15T09:50:14;96441.91;;;8.73;46.83
70127;BME280;57491;42.694;23.314;2023-02-15T09:52:55;96439.81;;;8.57;46.96
70127;BME280;57491;42.694;23.314;2023-02-15T09:55:37;96441.03;;;8.53;47.40
70127;BME280;57491;42.694;23.314;2023-02-15T09:58:16;96443.00;;;8.80;46.61
70127;BME280;57491;42.694;23.314;2023-02-15T10:00:53;96436.72;;;8.73;46.60
70127;BME280;57491;42.694;23.314;2023-02-15T10:03:33;96421.66;;;8.57;46.68
70127;BME280;57491;42.694;23.314;2023-02-15T10:06:27;96440.81;;;9.23;45.98
70127;BME280;57491;42.694;23.314;2023-02-15T10:09:13;96427.00;;;9.52;45.05
70127;BME280;57491;42.694;23.314;2023-02-15T10:11:56;96432.88;;;9.63;44.47
70127;BME280;57491;42.694;23.314;2023-02-15T10:14:43;96428.53;;;9.45;45.15
70127;BME280;57491;42.694;23.314;2023-02-15T10:17:27;96426.25;;;9.88;44.33
70127;BME280;57491;42.694;23.314;2023-02-15T10:20:10;96424.72;;;10.32;42.17
70127;BME280;57491;42.694;23.314;2023-02-15T10:22:55;96421.13;;;10.43;42.30
70127;BME280;57491;42.694;23.314;2023-02-15T10:25:33;96419.59;;;10.67;41.11
70127;BME280;57491;42.694;23.314;2023-02-15T10:28:10;96414.34;;;10.95;40.10
70127;BME280;57491;42.694;23.314;2023-02-15T10:30:46;96409.88;;;10.87;40.54
70127;BME280;57491;42.694;23.314;2023-02-15T10:33:25;96400.94;;;11.43;38.94
70127;BME280;57491;42.694;23.314;2023-02-15T10:36:05;96420.53;;;11.29;39.92
70127;BME280;57491;42.694;23.314;2023-02-15T10:38:38;96407.97;;;10.71;40.66
70127;BME280;57491;42.694;23.314;2023-02-15T10:41:17;96396.31;;;10.48;41.49
70127;BME280;57491;42.694;23.314;2023-02-15T10:44:04;96401.41;;;10.85;41.52
70127;BME280;57491;42.694;23.314;2023-02-15T10:46:47;96403.03;;;11.04;40.54
70127;BME280;57491;42.694;23.314;2023-02-15T10:49:29;96400.38;;;11.13;42.93
70127;BME280;57491;42.694;23.314;2023-02-15T10:52:11;96390.00;;;12.67;37.49
70127;BME280;57491;42.694;23.314;2023-02-15T10:54:46;96382.47;;;14.09;34.47
70127;BME280;57491;42.694;23.314;2023-02-15T10:57:21;96384.50;;;13.91;33.71
70127;BME280;57491;42.694;23.314;2023-02-15T11:00:03;96380.97;;;14.62;34.15
70127;BME280;57491;42.694;23.314;2023-02-15T11:02:44;96386.16;;;15.38;32.07
70127;BME280;57491;42.694;23.314;2023-02-15T11:05:36;96380.56;;;14.96;32.50
70127;BME280;57491;42.694;23.314;2023-02-15T11:08:09;96382.66;;;16.57;30.57
70127;BME280;57491;42.694;23.314;2023-02-15T11:10:39;96384.38;;;17.00;29.11
70127;BME280;57491;42.694;23.314;2023-02-15T11:13:10;96382.88;;;15.59;30.37
70127;BME280;57491;42.694;23.314;2023-02-15T11:15:44;96386.56;;;15.87;30.88
70127;BME280;57491;42.694;23.314;2023-02-15T11:18:16;96380.22;;;16.26;29.88
70127;BME280;57491;42.694;23.314;2023-02-15T11:20:53;96388.41;;;15.04;31.18
70127;BME280;57491;42.694;23.314;2023-02-15T11:23:21;96372.06;;;14.32;33.57
70127;BME280;57491;42.694;23.314;2023-02-15T11:25:54;96380.06;;;15.23;31.96
70127;BME280;57491;42.694;23.314;2023-02-15T11:28:28;96378.38;;;16.56;29.71
70127;BME280;57491;42.694;23.314;2023-02-15T11:31:01;96385.13;;;16.43;29.39
70127;BME280;57491;42.694;23.314;2023-02-15T11:33:38;96373.88;;;15.61;30.68
70127;BME280;57491;42.694;23.314;2023-02-15T11:36:09;96370.63;;;16.18;29.95
70127;BME280;57491;42.694;23.314;2023-02-15T11:38:38;96368.19;;;15.87;30.04
70127;BME280;57491;42.694;23.314;2023-02-15T11:41:11;96370.81;;;15.35;30.99
70127;BME280;57491;42.694;23.314;2023-02-15T11:43:43;96373.44;;;15.12;31.43
70127;BME280;57491;42.694;23.314;2023-02-15T11:46:15;96368.16;;;16.97;28.92
70127;BME280;57491;42.694;23.314;2023-02-15T11:48:44;96364.34;;;18.32;26.47
70127;BME280;57491;42.694;23.314;2023-02-15T11:51:13;96360.41;;;19.23;25.46
70127;BME280;57491;42.694;23.314;2023-02-15T11:53:42;96354.34;;;20.59;23.80
70127;BME280;57491;42.694;23.314;2023-02-15T11:56:14;96357.66;;;21.55;23.04
70127;BME280;57491;42.694;23.314;2023-02-15T11:58:45;96357.63;;;21.79;22.36
70127;BME280;57491;42.694;23.314;2023-02-15T12:01:18;96348.22;;;22.63;21.36
70127;BME280;57491;42.694;23.314;2023-02-15T12:03:50;96337.13;;;22.54;20.96
70127;BME280;57491;42.694;23.314;2023-02-15T12:06:24;96330.34;;;22.22;21.00
70127;BME280;57491;42.694;23.314;2023-02-15T12:08:57;96331.91;;;21.87;21.81
70127;BME280;57491;42.694;23.314;2023-02-15T12:11:32;96330.91;;;22.60;20.91
70127;BME280;57491;42.694;23.314;2023-02-15T12:14:02;96333.47;;;23.80;19.60
70127;BME280;57491;42.694;23.314;2023-02-15T12:16:40;96321.59;;;24.97;18.27
70127;BME280;57491;42.694;23.314;2023-02-15T12:21:56;96319.72;;;26.53;16.71
70127;BME280;57491;42.694;23.314;2023-02-15T12:24:28;96312.19;;;27.15;16.63
70127;BME280;57491;42.694;23.314;2023-02-15T12:26:59;96314.47;;;25.81;17.31
70127;BME280;57491;42.694;23.314;2023-02-15T12:29:30;96312.50;;;26.10;17.61
70127;BME280;57491;42.694;23.314;2023-02-15T12:31:59;96311.09;;;25.69;17.30
70127;BME280;57491;42.694;23.314;2023-02-15T12:34:30;96306.56;;;25.53;17.43
70127;BME280;57491;42.694;23.314;2023-02-15T12:37:02;96310.69;;;25.77;17.44
70127;BME280;57491;42.694;23.314;2023-02-15T12:39:34;96306.69;;;27.00;16.50
70127;BME280;57491;42.694;23.314;2023-02-15T12:42:04;96280.53;;;26.32;16.53
70127;BME280;57491;42.694;23.314;2023-02-15T12:44:33;96281.84;;;25.91;17.16
70127;BME280;57491;42.694;23.314;2023-02-15T12:47:04;96287.19;;;26.29;16.74
70127;BME280;57491;42.694;23.314;2023-02-15T12:49:32;96289.13;;;26.34;16.30
70127;BME280;57491;42.694;23.314;2023-02-15T12:52:00;96265.56;;;26.74;16.33
70127;BME280;57491;42.694;23.314;2023-02-15T12:54:37;96283.69;;;28.47;14.82
70127;BME280;57491;42.694;23.314;2023-02-15T12:57:15;96278.72;;;27.71;14.96
70127;BME280;57491;42.694;23.314;2023-02-15T12:59:52;96277.28;;;26.95;16.21
70127;BME280;57491;42.694;23.314;2023-02-15T13:02:25;96271.25;;;26.56;15.92
70127;BME280;57491;42.694;23.314;2023-02-15T13:04:54;96266.03;;;26.44;16.29
70127;BME280;57491;42.694;23.314;2023-02-15T13:07:24;96275.75;;;27.36;15.60
70127;BME280;57491;42.694;23.314;2023-02-15T13:09:51;96276.84;;;26.81;15.82
70127;BME280;57491;42.694;23.314;2023-02-15T13:12:22;96266.81;;;27.52;15.97
70127;BME280;57491;42.694;23.314;2023-02-15T13:14:53;96262.22;;;27.47;15.72
70127;BME280;57491;42.694;23.314;2023-02-15T13:17:25;96263.25;;;28.20;15.47
70127;BME280;57491;42.694;23.314;2023-02-15T13:19:57;96261.41;;;28.26;15.20
70127;BME280;57491;42.694;23.314;2023-02-15T13:22:28;96258.56;;;27.54;15.31
70127;BME280;57491;42.694;23.314;2023-02-15T13:25:01;96261.44;;;26.88;15.78